Time;durP1;ratioP1;P1;durP2;ratioP2;P2;SDS_P1;SDS_P2;PMS_P1;PMS_P2;Temp;Humidity;BMP_temperature;BMP_pressure;BME280_temperature;BME280_humidity;BME280_pressure;Samples;Min_cycle;Max_cycle;Signal;HPM_P1;HPM_P2
2023/05/07 00:00:51;;;;;;;8.10;7.40;;;10.50;99.90;;;;;;5103350;27;20214;-70
2023/05/07 00:03:18;;;;;;;8.53;7.83;;;10.50;99.90;;;;;;5104875;28;20217;-69
2023/05/07 00:05:47;;;;;;;8.03;7.33;;;10.40;99.90;;;;;;5105160;28;20213;-69
2023/05/07 00:08:14;;;;;;;8.10;7.40;;;10.40;99.90;;;;;;5105453;28;20210;-70
2023/05/07 00:10:42;;;;;;;8.30;7.60;;;10.50;99.90;;;;;;5105721;28;20229;-69
2023/05/07 00:13:09;;;;;;;8.77;8.00;;;10.40;99.90;;;;;;5105457;28;20240;-70
2023/05/07 00:15:36;;;;;;;9.13;8.23;;;10.50;99.90;;;;;;5096789;28;20715;-71
2023/05/07 00:18:02;;;;;;;8.47;7.63;;;10.50;99.90;;;;;;5094749;28;20200;-71
2023/05/07 00:20:29;;;;;;;8.37;7.23;;;10.50;99.90;;;;;;5095101;28;20292;-71
2023/05/07 00:22:58;;;;;;;8.20;7.40;;;10.50;99.90;;;;;;5093600;28;20201;-71
2023/05/07 00:25:25;;;;;;;8.20;7.40;;;10.50;99.90;;;;;;5098768;28;20227;-70
2023/05/07 00:27:51;;;;;;;8.00;7.20;;;10.50;99.90;;;;;;5093402;28;20199;-70
2023/05/07 00:30:19;;;;;;;9.20;7.10;;;10.60;99.90;;;;;;5094141;28;20325;-71
2023/05/07 00:32:47;;;;;;;8.63;6.90;;;10.60;99.90;;;;;;5093169;28;20733;-72
2023/05/07 00:35:13;;;;;;;7.63;6.97;;;10.60;99.90;;;;;;5092561;28;20220;-70
2023/05/07 00:37:40;;;;;;;7.47;6.77;;;10.50;99.90;;;;;;5104711;28;20229;-70
2023/05/07 00:40:10;;;;;;;8.43;7.03;;;10.60;99.90;;;;;;5084974;28;20198;-70
2023/05/07 00:42:37;;;;;;;7.60;6.60;;;10.60;99.90;;;;;;5087930;28;20207;-70
2023/05/07 00:45:05;;;;;;;6.83;6.23;;;10.60;99.90;;;;;;5091563;28;20198;-70
2023/05/07 00:47:32;;;;;;;7.53;6.83;;;10.60;99.90;;;;;;5094917;28;20205;-68
2023/05/07 00:49:59;;;;;;;7.47;6.87;;;10.60;99.90;;;;;;5085829;28;20299;-68
2023/05/07 00:52:27;;;;;;;7.93;6.47;;;10.60;99.90;;;;;;5105387;28;20226;-68
2023/05/07 00:54:57;;;;;;;6.93;6.23;;;10.60;99.90;;;;;;5093705;28;20228;-68
2023/05/07 00:57:26;;;;;;;6.17;5.67;;;10.60;99.90;;;;;;5084862;28;20657;-68
2023/05/07 00:59:53;;;;;;;5.83;5.33;;;10.60;99.90;;;;;;5099541;27;20199;-68
2023/05/07 01:02:19;;;;;;;6.73;6.13;;;10.70;99.90;;;;;;5084974;28;20298;-68
2023/05/07 01:04:46;;;;;;;6.60;6.00;;;10.70;99.90;;;;;;5084808;28;20298;-68
2023/05/07 01:07:14;;;;;;;6.40;5.90;;;10.60;99.90;;;;;;5084880;28;20205;-71
2023/05/07 01:09:41;;;;;;;5.90;5.40;;;10.60;99.90;;;;;;5084641;28;20305;-71
2023/05/07 01:12:09;;;;;;;6.10;5.60;;;10.70;99.90;;;;;;5084403;28;20333;-71
2023/05/07 01:14:37;;;;;;;5.87;5.40;;;10.60;99.90;;;;;;5084470;28;20234;-71
2023/05/07 01:17:04;;;;;;;5.63;5.13;;;10.60;99.90;;;;;;5083839;28;20198;-71
2023/05/07 01:19:31;;;;;;;6.33;5.73;;;10.70;99.90;;;;;;5084236;28;20290;-71
2023/05/07 01:22:04;;;;;;;5.50;5.10;;;10.70;99.90;;;;;;5084057;28;20301;-71
2023/05/07 01:24:34;;;;;;;6.10;5.57;;;10.70;99.90;;;;;;5083783;28;20195;-71
2023/05/07 01:27:02;;;;;;;6.03;5.53;;;10.70;99.90;;;;;;5095067;28;20228;-71
2023/05/07 01:29:29;;;;;;;6.23;5.63;;;10.60;99.90;;;;;;5104944;28;20602;-71
2023/05/07 01:31:59;;;;;;;6.40;5.90;;;10.60;99.90;;;;;;5104996;28;20599;-71
2023/05/07 01:34:27;;;;;;;8.00;5.80;;;10.60;99.90;;;;;;5104459;28;20284;-71
2023/05/07 01:36:57;;;;;;;5.83;5.43;;;10.70;99.90;;;;;;5105069;28;20210;-72
2023/05/07 01:39:26;;;;;;;6.50;6.00;;;10.60;99.90;;;;;;5104880;28;20639;-72
2023/05/07 01:41:56;;;;;;;6.10;5.67;;;10.60;99.90;;;;;;5097621;28;20199;-71
2023/05/07 01:44:23;;;;;;;6.40;5.80;;;10.60;99.90;;;;;;5095150;28;20301;-70
2023/05/07 01:46:50;;;;;;;6.37;5.83;;;10.60;99.90;;;;;;5088748;28;20312;-70
2023/05/07 01:49:18;;;;;;;6.03;5.63;;;10.50;99.90;;;;;;5087878;28;20321;-70
2023/05/07 01:51:45;;;;;;;6.60;6.00;;;10.50;99.90;;;;;;5088511;28;20719;-70
2023/05/07 01:54:12;;;;;;;6.60;6.10;;;10.50;99.90;;;;;;5103825;28;20681;-69
2023/05/07 01:56:39;;;;;;;6.10;5.60;;;10.50;99.90;;;;;;5108672;28;20293;-69
2023/05/07 01:59:07;;;;;;;6.07;5.57;;;10.50;99.90;;;;;;5110714;27;20221;-69
2023/05/07 02:01:34;;;;;;;6.13;5.57;;;10.50;99.90;;;;;;5129084;27;20312;-70
2023/05/07 02:04:01;;;;;;;6.00;5.50;;;10.50;99.90;;;;;;5117913;27;20286;-69
2023/05/07 02:06:28;;;;;;;6.57;5.97;;;10.50;99.90;;;;;;5087905;28;21167;-70
2023/05/07 02:08:55;;;;;;;5.83;5.33;;;10.50;99.90;;;;;;5088457;28;20203;-69
2023/05/07 02:11:21;;;;;;;5.93;5.43;;;10.60;99.90;;;;;;5108046;28;20237;-71
2023/05/07 02:13:48;;;;;;;5.83;5.43;;;10.50;99.90;;;;;;5108451;28;20617;-71
2023/05/07 02:16:17;;;;;;;5.80;5.30;;;10.50;99.90;;;;;;5108228;28;20286;-71
2023/05/07 02:18:44;;;;;;;5.40;5.00;;;10.50;99.90;;;;;;5108191;28;20289;-71
2023/05/07 02:21:11;;;;;;;5.27;4.77;;;10.50;99.90;;;;;;5107425;28;20229;-71
2023/05/07 02:23:37;;;;;;;6.43;5.83;;;10.40;99.90;;;;;;5107795;28;20202;-71
2023/05/07 02:26:05;;;;;;;5.43;5.13;;;10.50;99.90;;;;;;5107460;28;20297;-71
2023/05/07 02:28:35;;;;;;;5.63;5.23;;;10.40;99.90;;;;;;5107769;28;20216;-71
2023/05/07 02:31:03;;;;;;;5.93;5.53;;;10.50;99.90;;;;;;5107565;28;20205;-71
2023/05/07 02:33:31;;;;;;;6.17;5.60;;;10.50;99.90;;;;;;5099465;28;20683;-71
2023/05/07 02:35:58;;;;;;;6.20;5.80;;;10.50;99.90;;;;;;5087375;28;20210;-71
2023/05/07 02:38:25;;;;;;;6.40;5.90;;;10.50;99.90;;;;;;5087202;28;20234;-71
2023/05/07 02:40:52;;;;;;;6.00;5.57;;;10.50;99.90;;;;;;5087472;28;20305;-71
2023/05/07 02:43:18;;;;;;;6.93;6.37;;;10.50;99.90;;;;;;5087326;28;20293;-71
2023/05/07 02:45:45;;;;;;;8.63;6.50;;;10.50;99.90;;;;;;5098992;28;20288;-70
2023/05/07 02:48:12;;;;;;;6.43;5.93;;;10.50;99.90;;;;;;5092101;28;20202;-71
2023/05/07 02:50:40;;;;;;;7.27;6.57;;;10.50;99.90;;;;;;5105944;28;20798;-71
2023/05/07 02:53:08;;;;;;;7.33;6.73;;;10.50;99.90;;;;;;5107608;28;20336;-71
2023/05/07 02:55:35;;;;;;;7.80;7.00;;;10.50;99.90;;;;;;5107114;28;20263;-71
2023/05/07 02:58:01;;;;;;;7.10;6.53;;;10.40;99.90;;;;;;5095688;28;20237;-71
2023/05/07 03:00:28;;;;;;;6.80;6.30;;;10.40;99.90;;;;;;5092681;28;20211;-69
2023/05/07 03:02:55;;;;;;;7.30;6.70;;;10.40;99.90;;;;;;5086622;28;20242;-70
2023/05/07 03:05:22;;;;;;;7.30;6.70;;;10.40;99.90;;;;;;5086751;28;20206;-70
2023/05/07 03:07:51;;;;;;;7.53;6.77;;;10.30;99.90;;;;;;5103487;28;20297;-70
2023/05/07 03:10:18;;;;;;;7.17;6.47;;;10.40;99.90;;;;;;5087960;28;20213;-70
2023/05/07 03:12:45;;;;;;;7.67;6.87;;;10.30;99.90;;;;;;5086297;28;20697;-70
2023/05/07 03:15:12;;;;;;;6.90;6.40;;;10.30;99.90;;;;;;5086492;28;20289;-70
2023/05/07 03:17:39;;;;;;;6.77;6.27;;;10.30;99.90;;;;;;5087954;28;20202;-69
2023/05/07 03:20:08;;;;;;;6.93;6.30;;;10.30;99.90;;;;;;5086968;28;20194;-69
2023/05/07 03:22:35;;;;;;;6.37;5.83;;;10.30;99.90;;;;;;5086908;28;20209;-69
2023/05/07 03:25:03;;;;;;;6.93;6.33;;;10.30;99.90;;;;;;5086619;28;20238;-68
2023/05/07 03:27:31;;;;;;;6.67;6.07;;;10.30;99.90;;;;;;5087155;28;20213;-69
2023/05/07 03:29:57;;;;;;;6.87;6.27;;;10.30;99.90;;;;;;5094288;27;20290;-69
2023/05/07 03:32:24;;;;;;;6.40;5.90;;;10.30;99.90;;;;;;5087153;28;20230;-70
2023/05/07 03:34:51;;;;;;;6.37;5.77;;;10.30;99.90;;;;;;5087056;28;20297;-70
2023/05/07 03:37:18;;;;;;;6.70;6.13;;;10.30;99.90;;;;;;5086575;28;20729;-69
2023/05/07 03:39:45;;;;;;;6.97;6.07;;;10.40;99.90;;;;;;5086120;28;20211;-69
2023/05/07 03:42:14;;;;;;;6.07;5.67;;;10.40;99.90;;;;;;5091714;28;20238;-70
2023/05/07 03:44:41;;;;;;;5.50;5.00;;;10.30;99.90;;;;;;5095863;27;20738;-70
2023/05/07 03:47:09;;;;;;;5.43;5.03;;;10.30;99.90;;;;;;5106749;28;20906;-70
2023/05/07 03:49:36;;;;;;;5.50;5.10;;;10.30;99.90;;;;;;5106496;28;20233;-70
2023/05/07 03:52:04;;;;;;;5.70;5.30;;;10.30;99.90;;;;;;5104413;28;20221;-70
2023/05/07 03:54:31;;;;;;;5.53;5.13;;;10.40;99.90;;;;;;5096959;28;20294;-70
2023/05/07 03:56:58;;;;;;;5.70;5.23;;;10.40;99.90;;;;;;5085484;28;20292;-70
2023/05/07 03:59:26;;;;;;;5.53;5.03;;;10.40;99.90;;;;;;5085844;28;20301;-70
2023/05/07 04:01:53;;;;;;;6.00;5.50;;;10.30;99.90;;;;;;5085965;28;20298;-70
2023/05/07 04:04:21;;;;;;;5.33;4.87;;;10.40;99.90;;;;;;5091894;28;20233;-69
2023/05/07 04:06:47;;;;;;;5.97;5.50;;;10.40;99.90;;;;;;5106357;28;21018;-70
2023/05/07 04:09:14;;;;;;;5.30;4.90;;;10.30;99.90;;;;;;5105314;28;20627;-69
2023/05/07 04:11:41;;;;;;;5.40;5.00;;;10.40;99.90;;;;;;5105371;28;20238;-69
2023/05/07 04:14:08;;;;;;;5.27;4.87;;;10.40;99.90;;;;;;5088670;28;20211;-69
2023/05/07 04:16:37;;;;;;;5.67;5.23;;;10.40;99.90;;;;;;5099559;27;20289;-70
2023/05/07 04:19:04;;;;;;;5.77;5.37;;;10.40;99.90;;;;;;5085820;28;20217;-70
2023/05/07 04:21:30;;;;;;;5.63;5.00;;;10.40;99.90;;;;;;5085580;28;20329;-71
2023/05/07 04:23:57;;;;;;;5.40;5.00;;;10.40;99.90;;;;;;5085650;28;20322;-70
2023/05/07 04:26:24;;;;;;;7.17;4.80;;;10.30;99.90;;;;;;5085804;28;20207;-70
2023/05/07 04:28:51;;;;;;;5.63;5.13;;;10.30;99.90;;;;;;5087234;27;20301;-70
2023/05/07 04:31:18;;;;;;;5.27;4.80;;;10.30;99.90;;;;;;5122173;27;20206;-70
2023/05/07 04:33:46;;;;;;;5.70;5.10;;;10.30;99.90;;;;;;5085267;28;20716;-70
2023/05/07 04:36:13;;;;;;;4.83;4.53;;;10.30;99.90;;;;;;5085294;28;20716;-70
2023/05/07 04:38:40;;;;;;;5.30;4.80;;;10.40;99.90;;;;;;5097715;28;20364;-68
2023/05/07 04:41:07;;;;;;;4.80;4.37;;;10.40;99.90;;;;;;5105301;28;20198;-68
2023/05/07 04:43:34;;;;;;;4.57;4.27;;;10.30;99.90;;;;;;5105663;28;20304;-68
2023/05/07 04:46:02;;;;;;;5.83;5.27;;;10.30;99.90;;;;;;5105523;28;20217;-68
2023/05/07 04:48:28;;;;;;;5.03;4.63;;;10.30;99.90;;;;;;5105492;28;20206;-68
2023/05/07 04:50:57;;;;;;;6.37;4.60;;;10.30;99.90;;;;;;5105220;28;20257;-68
2023/05/07 04:53:24;;;;;;;5.13;4.70;;;10.30;99.90;;;;;;5105473;28;20226;-68
2023/05/07 04:55:56;;;;;;;4.70;4.30;;;10.30;99.90;;;;;;5105446;28;20305;-68
2023/05/07 04:58:23;;;;;;;4.87;4.57;;;10.30;99.90;;;;;;5099541;28;20202;-68
2023/05/07 05:00:50;;;;;;;5.07;4.57;;;10.30;99.90;;;;;;5102601;28;20957;-69
2023/05/07 05:03:17;;;;;;;5.13;4.73;;;10.40;99.90;;;;;;5103149;28;20281;-69
2023/05/07 05:05:44;;;;;;;4.67;4.27;;;10.40;99.90;;;;;;5105270;28;20229;-69
2023/05/07 05:08:12;;;;;;;5.10;4.70;;;10.40;99.90;;;;;;5105371;28;20206;-69
2023/05/07 05:10:40;;;;;;;4.47;4.17;;;10.40;99.90;;;;;;5105237;28;20296;-69
2023/05/07 05:13:07;;;;;;;4.40;4.00;;;10.40;99.90;;;;;;5104686;28;20241;-69
2023/05/07 05:15:34;;;;;;;4.60;4.30;;;10.40;99.90;;;;;;5103594;28;20199;-69
2023/05/07 05:18:01;;;;;;;4.20;3.90;;;10.50;99.90;;;;;;5088172;28;20207;-68
2023/05/07 05:20:28;;;;;;;3.90;3.60;;;10.40;99.90;;;;;;5084546;28;20295;-69
2023/05/07 05:22:55;;;;;;;3.83;3.63;;;10.50;99.90;;;;;;5088236;28;20241;-69
2023/05/07 05:25:23;;;;;;;3.70;3.40;;;10.50;99.90;;;;;;5088412;28;20298;-69
2023/05/07 05:27:50;;;;;;;3.90;3.60;;;10.50;99.90;;;;;;5089200;28;20207;-69
2023/05/07 05:30:17;;;;;;;4.57;3.70;;;10.50;99.90;;;;;;5101757;27;20940;-69
2023/05/07 05:32:44;;;;;;;3.83;3.60;;;10.50;99.90;;;;;;5109129;28;20313;-69
2023/05/07 05:35:11;;;;;;;4.03;3.73;;;10.60;99.90;;;;;;5105961;27;20210;-69
2023/05/07 05:37:38;;;;;;;3.97;3.70;;;10.60;99.90;;;;;;5089834;28;20275;-69
2023/05/07 05:40:05;;;;;;;4.40;3.73;;;10.60;99.90;;;;;;5088280;28;20201;-69
2023/05/07 05:42:34;;;;;;;4.03;3.73;;;10.60;99.90;;;;;;5088470;28;20272;-69
2023/05/07 05:45:01;;;;;;;4.23;3.90;;;10.60;99.90;;;;;;5088750;28;20243;-69
2023/05/07 05:47:27;;;;;;;3.83;3.63;;;10.70;99.90;;;;;;5088530;28;20247;-69
2023/05/07 05:49:54;;;;;;;3.60;3.40;;;10.70;99.90;;;;;;5087906;28;20722;-69
2023/05/07 05:52:23;;;;;;;3.80;3.60;;;10.60;99.90;;;;;;5089571;28;20234;-69
2023/05/07 05:54:50;;;;;;;3.90;3.60;;;10.70;99.90;;;;;;5087994;28;20428;-69
2023/05/07 05:57:17;;;;;;;3.80;3.60;;;10.70;99.90;;;;;;5087690;28;20199;-69
2023/05/07 05:59:47;;;;;;;4.30;4.00;;;10.70;99.90;;;;;;5096308;28;20262;-70
2023/05/07 06:02:14;;;;;;;4.03;3.73;;;10.70;99.90;;;;;;5087250;28;20716;-69
2023/05/07 06:04:42;;;;;;;3.73;3.43;;;10.80;99.90;;;;;;5087692;28;20671;-69
2023/05/07 06:07:09;;;;;;;4.47;4.10;;;10.80;99.90;;;;;;5087614;28;20623;-69
2023/05/07 06:09:36;;;;;;;3.97;3.73;;;10.80;99.90;;;;;;5087765;28;20213;-69
2023/05/07 06:12:02;;;;;;;4.27;3.97;;;10.90;99.90;;;;;;5087782;28;20326;-69
2023/05/07 06:14:29;;;;;;;3.77;3.47;;;10.90;99.90;;;;;;5091426;28;20200;-70
2023/05/07 06:16:58;;;;;;;4.27;3.87;;;10.90;99.90;;;;;;5100264;28;20195;-69
2023/05/07 06:19:26;;;;;;;4.10;3.80;;;10.80;99.90;;;;;;5087673;28;20958;-69
2023/05/07 06:21:53;;;;;;;4.93;4.10;;;10.90;99.90;;;;;;5087782;28;20213;-69
2023/05/07 06:24:20;;;;;;;4.87;3.97;;;10.90;99.90;;;;;;5087126;28;20215;-69
2023/05/07 06:26:47;;;;;;;3.73;3.43;;;11.00;99.90;;;;;;5087298;28;20691;-69
2023/05/07 06:29:13;;;;;;;5.30;4.27;;;11.00;99.90;;;;;;5091075;28;20654;-69
2023/05/07 06:31:41;;;;;;;4.43;4.07;;;11.00;99.90;;;;;;5107570;28;20755;-69
2023/05/07 06:34:09;;;;;;;4.27;3.97;;;11.00;99.90;;;;;;5106378;28;20240;-70
2023/05/07 06:36:36;;;;;;;4.27;3.97;;;11.00;99.90;;;;;;5107647;28;20255;-70
2023/05/07 06:39:03;;;;;;;4.67;4.27;;;11.10;99.90;;;;;;5101242;28;21021;-70
2023/05/07 06:41:30;;;;;;;4.30;4.00;;;11.10;99.90;;;;;;5086835;28;20293;-70
2023/05/07 06:43:57;;;;;;;4.00;3.70;;;11.10;99.90;;;;;;5087351;28;20294;-70
2023/05/07 06:46:24;;;;;;;4.10;3.80;;;11.20;99.90;;;;;;5086977;28;20285;-70
2023/05/07 06:48:52;;;;;;;4.23;3.83;;;11.20;99.90;;;;;;5104777;28;20289;-70
2023/05/07 06:51:20;;;;;;;9.70;3.97;;;11.20;99.90;;;;;;5098701;27;20721;-70
2023/05/07 06:53:47;;;;;;;4.03;3.80;;;11.30;99.90;;;;;;5103329;28;20309;-70
2023/05/07 06:56:14;;;;;;;4.70;4.30;;;11.30;99.90;;;;;;5107131;28;20216;-69
2023/05/07 06:58:41;;;;;;;4.67;4.27;;;11.30;99.90;;;;;;5107342;28;20209;-70
2023/05/07 07:01:08;;;;;;;4.10;3.80;;;11.40;99.90;;;;;;5088289;28;20301;-68
2023/05/07 07:03:35;;;;;;;4.07;3.77;;;11.40;99.90;;;;;;5099682;28;20212;-68
2023/05/07 07:06:03;;;;;;;4.70;4.30;;;11.40;99.90;;;;;;5096769;28;20203;-68
2023/05/07 07:08:31;;;;;;;4.97;4.50;;;11.50;99.90;;;;;;5097199;28;20284;-68
2023/05/07 07:10:58;;;;;;;4.20;3.90;;;11.40;99.90;;;;;;5105728;28;20202;-68
2023/05/07 07:13:25;;;;;;;4.50;4.17;;;11.50;99.90;;;;;;5062823;28;20215;-70
2023/05/07 07:15:53;;;;;;;4.20;3.90;;;11.50;99.90;;;;;;5065676;28;20629;-70
2023/05/07 07:18:20;;;;;;;4.70;4.30;;;11.50;99.90;;;;;;5047020;28;20211;-70
2023/05/07 07:20:47;;;;;;;4.87;4.40;;;11.60;99.90;;;;;;5046042;28;20663;-71
2023/05/07 07:23:14;;;;;;;4.57;4.23;;;11.60;99.90;;;;;;5045999;28;20212;-71
2023/05/07 07:25:42;;;;;;;4.10;3.80;;;11.60;99.90;;;;;;5045596;28;20671;-70
2023/05/07 07:28:10;;;;;;;5.17;3.77;;;11.60;99.90;;;;;;5045755;28;20208;-69
2023/05/07 07:30:37;;;;;;;4.03;3.73;;;11.60;99.90;;;;;;5060909;28;20207;-69
2023/05/07 07:33:05;;;;;;;4.00;3.70;;;11.60;99.90;;;;;;5065696;28;20231;-69
2023/05/07 07:35:31;;;;;;;3.90;3.70;;;11.60;99.90;;;;;;5065583;28;20210;-69
2023/05/07 07:37:58;;;;;;;3.60;3.33;;;11.60;99.90;;;;;;5064996;28;20303;-69
2023/05/07 07:40:26;;;;;;;4.00;3.70;;;11.70;99.90;;;;;;5045937;28;20290;-69
2023/05/07 07:42:55;;;;;;;4.10;3.90;;;11.70;99.90;;;;;;5045673;28;20247;-69
2023/05/07 07:45:22;;;;;;;5.63;5.13;;;11.80;99.90;;;;;;5045350;28;20212;-69
2023/05/07 07:47:49;;;;;;;16.47;14.77;;;11.90;99.90;;;;;;5045701;28;20212;-69
2023/05/07 07:50:16;;;;;;;4.63;3.47;;;11.90;99.90;;;;;;5064291;28;20590;-70
2023/05/07 07:52:43;;;;;;;4.43;3.37;;;12.00;99.90;;;;;;5065521;28;20215;-68
2023/05/07 07:55:10;;;;;;;3.27;3.07;;;12.10;99.90;;;;;;5065570;28;20294;-68
2023/05/07 07:57:37;;;;;;;3.23;3.00;;;12.10;99.90;;;;;;5065809;28;20207;-69
2023/05/07 08:00:07;;;;;;;3.60;3.30;;;12.20;99.90;;;;;;5065624;28;20290;-68
2023/05/07 08:02:34;;;;;;;3.73;3.43;;;12.20;99.90;;;;;;5061287;28;20195;-69
2023/05/07 08:05:01;;;;;;;4.10;3.57;;;12.20;99.90;;;;;;5045682;28;20655;-70
2023/05/07 08:07:28;;;;;;;3.00;2.80;;;12.30;99.90;;;;;;5045352;28;20335;-70
2023/05/07 08:09:55;;;;;;;3.03;2.70;;;12.30;99.90;;;;;;5045228;28;20220;-70
2023/05/07 08:12:22;;;;;;;3.00;2.80;;;12.40;99.90;;;;;;5068411;28;20381;-69
2023/05/07 08:14:49;;;;;;;2.83;2.53;;;12.40;99.90;;;;;;5105249;28;20236;-69
2023/05/07 08:17:17;;;;;;;3.07;2.87;;;12.50;99.90;;;;;;5095113;28;20207;-71
2023/05/07 08:19:44;;;;;;;3.33;3.07;;;12.60;99.90;;;;;;5085168;28;20206;-69
2023/05/07 08:22:11;;;;;;;3.27;3.03;;;12.60;99.90;;;;;;5083880;28;20213;-69
2023/05/07 08:24:38;;;;;;;3.80;2.63;;;12.60;99.90;;;;;;5092033;28;20559;-69
2023/05/07 08:27:05;;;;;;;3.00;2.70;;;12.70;99.90;;;;;;5083845;28;20673;-69
2023/05/07 08:29:32;;;;;;;3.50;2.70;;;12.70;99.90;;;;;;5084169;28;20275;-72
2023/05/07 08:31:59;;;;;;;3.23;2.93;;;12.90;99.90;;;;;;5092228;28;20202;-70
2023/05/07 08:34:27;;;;;;;3.00;2.80;;;13.00;99.90;;;;;;5089235;28;20270;-69
2023/05/07 08:36:55;;;;;;;2.67;2.47;;;13.10;99.90;;;;;;5083817;28;20207;-69
2023/05/07 08:39:21;;;;;;;3.20;2.50;;;13.10;99.90;;;;;;5083555;28;20216;-69
2023/05/07 08:41:53;;;;;;;2.60;2.40;;;13.20;99.90;;;;;;5086380;28;20200;-69
2023/05/07 08:44:23;;;;;;;2.50;2.30;;;13.20;99.90;;;;;;5096873;28;20196;-69
2023/05/07 08:46:53;;;;;;;2.40;2.20;;;13.20;99.90;;;;;;5084028;28;20289;-70
2023/05/07 08:49:21;;;;;;;4.20;2.40;;;13.20;99.90;;;;;;5083773;28;20223;-69
2023/05/07 08:51:49;;;;;;;2.87;2.67;;;13.30;99.90;;;;;;5086226;28;20210;-69
2023/05/07 08:54:17;;;;;;;2.40;2.30;;;13.40;99.90;;;;;;5103395;28;20324;-69
2023/05/07 08:56:44;;;;;;;2.43;2.20;;;13.40;99.90;;;;;;5105373;28;20242;-69
2023/05/07 08:59:11;;;;;;;2.30;2.20;;;13.50;99.90;;;;;;5103766;28;20221;-69
2023/05/07 09:01:38;;;;;;;3.17;2.37;;;13.50;99.90;;;;;;5087335;28;20259;-69
2023/05/07 09:04:06;;;;;;;2.67;2.47;;;13.50;99.90;;;;;;5088392;28;20255;-69
2023/05/07 09:06:33;;;;;;;2.73;2.40;;;13.50;99.90;;;;;;5086803;28;20260;-69
2023/05/07 09:09:04;;;;;;;2.63;2.40;;;13.60;99.90;;;;;;5086990;28;20285;-70
2023/05/07 09:11:32;;;;;;;2.43;2.23;;;13.50;99.90;;;;;;5086884;28;20234;-69
2023/05/07 09:14:01;;;;;;;3.10;2.50;;;13.60;99.90;;;;;;5087041;28;20319;-70
2023/05/07 09:16:29;;;;;;;2.77;2.57;;;13.60;99.90;;;;;;5086673;28;20199;-70
2023/05/07 09:18:59;;;;;;;2.30;2.20;;;13.60;99.90;;;;;;5087065;28;20206;-69
2023/05/07 09:21:27;;;;;;;2.57;2.47;;;13.60;99.90;;;;;;5086272;28;20221;-70
2023/05/07 09:23:55;;;;;;;3.20;2.43;;;13.70;99.90;;;;;;5086721;28;20202;-69
2023/05/07 09:26:24;;;;;;;3.77;2.63;;;13.80;99.90;;;;;;5088288;28;20194;-70
2023/05/07 09:28:51;;;;;;;2.60;2.40;;;13.80;99.90;;;;;;5094521;28;20234;-69
2023/05/07 09:31:18;;;;;;;2.97;2.70;;;13.90;99.90;;;;;;5086687;28;20213;-70
2023/05/07 09:33:45;;;;;;;2.47;2.37;;;14.00;99.90;;;;;;5086354;28;20798;-70
2023/05/07 09:36:12;;;;;;;2.80;2.60;;;14.00;99.90;;;;;;5088596;28;20294;-69
2023/05/07 09:38:39;;;;;;;2.40;2.30;;;14.10;99.90;;;;;;5106821;28;20245;-69
2023/05/07 09:41:08;;;;;;;2.43;2.20;;;14.20;99.90;;;;;;5107184;28;20292;-69
2023/05/07 09:43:39;;;;;;;2.83;2.40;;;14.30;99.90;;;;;;5106880;28;21006;-69
2023/05/07 09:46:09;;;;;;;2.50;2.20;;;14.30;99.90;;;;;;5107067;28;20226;-70
2023/05/07 09:48:39;;;;;;;2.23;2.03;;;14.30;99.90;;;;;;5102200;28;20229;-69
2023/05/07 09:51:16;;;;;;;2.37;2.17;;;14.50;99.90;;;;;;5086636;28;20945;-70
2023/05/07 09:53:45;;;;;;;2.40;2.20;;;14.60;99.90;;;;;;5086112;28;20306;-70
2023/05/07 09:56:14;;;;;;;2.50;2.30;;;14.70;99.90;;;;;;5085950;28;20209;-70
2023/05/07 09:58:42;;;;;;;2.20;2.10;;;14.70;99.90;;;;;;5086258;28;20234;-70
2023/05/07 10:01:12;;;;;;;2.53;2.33;;;14.70;99.90;;;;;;5105366;28;20206;-70
2023/05/07 10:03:41;;;;;;;2.17;2.07;;;14.70;99.90;;;;;;5106593;28;20213;-70
2023/05/07 10:06:09;;;;;;;2.23;2.13;;;14.80;99.90;;;;;;5106261;27;20305;-70
2023/05/07 10:08:37;;;;;;;2.53;2.33;;;14.70;99.90;;;;;;5106493;28;20285;-70
2023/05/07 10:11:04;;;;;;;2.33;2.23;;;14.70;99.90;;;;;;5092646;28;20202;-70
2023/05/07 10:13:33;;;;;;;2.30;2.20;;;14.70;99.90;;;;;;5095900;28;20277;-70
2023/05/07 10:16:02;;;;;;;2.53;2.43;;;14.70;99.90;;;;;;5106490;28;20312;-70
2023/05/07 10:18:32;;;;;;;3.90;2.40;;;14.90;99.90;;;;;;5106137;28;20225;-70
2023/05/07 10:21:08;;;;;;;2.83;2.10;;;15.00;99.90;;;;;;5099410;28;20199;-70
2023/05/07 10:23:36;;;;;;;2.40;2.30;;;15.00;99.90;;;;;;5094685;28;20244;-70
2023/05/07 10:26:05;;;;;;;2.10;2.00;;;15.20;99.90;;;;;;5101001;28;20308;-70
2023/05/07 10:28:35;;;;;;;2.37;2.27;;;15.10;99.90;;;;;;5106400;28;20296;-70
2023/05/07 10:31:24;;;;;;;1.87;1.77;;;15.20;99.90;;;;;;5106523;28;20251;-69
2023/05/07 10:33:53;;;;;;;2.97;2.40;;;15.20;99.90;;;;;;5106043;28;20977;-69
2023/05/07 10:36:22;;;;;;;2.60;2.40;;;15.30;99.90;;;;;;5104444;28;20251;-69
2023/05/07 10:38:49;;;;;;;2.10;2.00;;;15.40;99.90;;;;;;5085730;28;20206;-69
2023/05/07 10:41:18;;;;;;;1.77;1.67;;;15.50;99.90;;;;;;5086677;28;20267;-69
2023/05/07 10:43:46;;;;;;;1.80;1.70;;;15.60;99.90;;;;;;5095885;28;20229;-69
2023/05/07 10:46:17;;;;;;;2.70;1.70;;;15.70;99.90;;;;;;5085329;28;20210;-69
2023/05/07 10:49:11;;;;;;;1.90;1.80;;;15.90;99.90;;;;;;5085978;28;20258;-69
2023/05/07 10:51:38;;;;;;;1.90;1.63;;;15.90;99.90;;;;;;5085911;28;20214;-69
2023/05/07 10:54:23;;;;;;;1.70;1.60;;;16.00;99.90;;;;;;5085707;28;20257;-68
2023/05/07 10:56:50;;;;;;;3.30;1.63;;;16.00;99.90;;;;;;5085719;28;20195;-69
2023/05/07 10:59:41;;;;;;;3.73;1.77;;;16.10;99.90;;;;;;5085615;28;20207;-69
2023/05/07 11:02:11;;;;;;;1.83;1.70;;;16.20;99.90;;;;;;5100420;28;20198;-69
2023/05/07 11:04:38;;;;;;;1.87;1.40;;;16.10;99.90;;;;;;5105571;28;20209;-69
2023/05/07 11:07:30;;;;;;;3.37;1.40;;;16.10;99.90;;;;;;5105122;28;20210;-69
2023/05/07 11:10:07;;;;;;;1.50;1.50;;;16.10;99.90;;;;;;5104625;28;20195;-68
2023/05/07 11:12:51;;;;;;;1.67;1.43;;;16.20;99.90;;;;;;5103533;27;20265;-68
2023/05/07 11:15:39;;;;;;;1.57;1.47;;;16.20;99.90;;;;;;5095217;28;20222;-68
2023/05/07 11:18:08;;;;;;;1.90;1.50;;;16.10;99.90;;;;;;5087672;28;20222;-68
2023/05/07 11:20:57;;;;;;;1.33;1.33;;;16.20;99.90;;;;;;5099302;28;20198;-68
2023/05/07 11:24:09;;;;;;;1.70;1.60;;;16.30;99.90;;;;;;5105174;28;20282;-69
2023/05/07 11:26:49;;;;;;;1.67;1.57;;;16.30;99.90;;;;;;5058410;28;20207;-69
2023/05/07 11:29:18;;;;;;;1.50;1.40;;;16.40;99.90;;;;;;5083934;28;20211;-68
2023/05/07 11:31:45;;;;;;;1.30;1.30;;;16.40;99.90;;;;;;5086330;27;20203;-68
2023/05/07 11:34:14;;;;;;;2.43;1.50;;;16.40;99.90;;;;;;5103091;27;20232;-69
2023/05/07 11:36:45;;;;;;;1.60;1.50;;;16.40;99.90;;;;;;5089696;28;20205;-68
2023/05/07 11:39:28;;;;;;;1.30;1.30;;;16.50;99.90;;;;;;5106043;28;20366;-69
2023/05/07 11:41:55;;;;;;;1.37;1.20;;;16.70;99.90;;;;;;5105876;28;20216;-68
2023/05/07 11:44:22;;;;;;;1.93;1.43;;;16.80;99.90;;;;;;5105418;28;20205;-68
2023/05/07 11:46:49;;;;;;;1.37;1.27;;;17.00;99.90;;;;;;5106056;28;20210;-68
2023/05/07 11:49:18;;;;;;;1.50;1.50;;;17.10;99.90;;;;;;5096873;28;20868;-69
2023/05/07 11:51:46;;;;;;;2.57;1.80;;;17.10;99.90;;;;;;5085733;28;20207;-68
2023/05/07 11:54:16;;;;;;;1.60;1.50;;;17.40;99.90;;;;;;5085541;28;20641;-68
2023/05/07 11:56:44;;;;;;;4.77;1.53;;;17.60;99.90;;;;;;5085431;28;20819;-69
2023/05/07 11:59:11;;;;;;;1.50;1.40;;;17.90;99.90;;;;;;5085861;28;20294;-69
2023/05/07 12:01:38;;;;;;;1.27;1.27;;;17.90;99.90;;;;;;5089826;28;20199;-69
2023/05/07 12:04:06;;;;;;;1.63;1.40;;;18.00;99.90;;;;;;5086043;28;20296;-69
2023/05/07 12:06:38;;;;;;;1.50;1.40;;;18.00;99.90;;;;;;5086020;28;20209;-69
2023/05/07 12:09:06;;;;;;;1.87;1.50;;;18.00;99.90;;;;;;5089074;28;20205;-69
2023/05/07 12:11:33;;;;;;;1.50;1.40;;;18.00;99.90;;;;;;5105694;28;20237;-69
2023/05/07 12:14:00;;;;;;;1.73;1.63;;;18.10;99.90;;;;;;5093144;28;20274;-68
2023/05/07 12:16:28;;;;;;;1.80;1.70;;;18.10;99.90;;;;;;5084738;28;20206;-68
2023/05/07 12:18:55;;;;;;;1.60;1.50;;;18.20;99.90;;;;;;5085054;28;20743;-68
2023/05/07 12:21:22;;;;;;;1.60;1.50;;;18.10;99.90;;;;;;5092932;28;20309;-69
2023/05/07 12:23:51;;;;;;;1.57;1.47;;;18.10;99.90;;;;;;5104858;28;20305;-68
2023/05/07 12:26:20;;;;;;;2.33;1.57;;;18.00;99.90;;;;;;5104847;28;20210;-69
2023/05/07 12:28:47;;;;;;;1.90;1.80;;;17.80;99.90;;;;;;5105319;28;20738;-68
2023/05/07 12:31:15;;;;;;;2.00;1.50;;;17.80;99.90;;;;;;5104366;27;20651;-69
2023/05/07 12:33:42;;;;;;;1.73;1.60;;;17.90;99.90;;;;;;5098082;28;20190;-69
2023/05/07 12:36:12;;;;;;;2.07;1.40;;;18.00;99.90;;;;;;5084920;28;20230;-68
2023/05/07 12:38:40;;;;;;;1.70;1.60;;;18.00;99.90;;;;;;5085799;28;20206;-69
2023/05/07 12:41:10;;;;;;;2.70;1.40;;;17.90;99.90;;;;;;5085591;28;20194;-68
2023/05/07 12:43:38;;;;;;;1.37;1.27;;;17.80;99.90;;;;;;5084921;28;20293;-68
2023/05/07 12:46:06;;;;;;;1.93;1.43;;;17.80;99.90;;;;;;5085312;28;20277;-68
2023/05/07 12:48:34;;;;;;;1.50;1.40;;;17.80;99.90;;;;;;5085361;28;20249;-69
2023/05/07 12:51:02;;;;;;;1.50;1.40;;;17.70;99.90;;;;;;5102636;28;20222;-68
2023/05/07 12:53:31;;;;;;;1.63;1.40;;;17.60;99.90;;;;;;5099863;28;20198;-69